sensor_id;sensor_type;location;lat;lon;timestamp;pressure;altitude;pressure_sealevel;temperature;humidity
59588;BME280;45412;54.472;18.464;2023-04-25T00:01:04;98492.55;;;10.90;100.00
59588;BME280;45412;54.472;18.464;2023-04-25T00:03:50;98493.76;;;10.93;100.00
59588;BME280;45412;54.472;18.464;2023-04-25T00:06:40;98493.92;;;10.93;99.98
59588;BME280;45412;54.472;18.464;2023-04-25T00:09:27;98487.93;;;10.90;99.75
59588;BME280;45412;54.472;18.464;2023-04-25T00:12:14;98484.86;;;10.90;99.85
59588;BME280;45412;54.472;18.464;2023-04-25T00:15:02;98481.77;;;10.92;99.96
59588;BME280;45412;54.472;18.464;2023-04-25T00:17:50;98477.55;;;10.91;99.91
59588;BME280;45412;54.472;18.464;2023-04-25T00:20:39;98472.09;;;10.91;99.97
59588;BME280;45412;54.472;18.464;2023-04-25T00:23:28;98469.98;;;10.87;99.85
59588;BME280;45412;54.472;18.464;2023-04-25T00:26:15;98468.13;;;10.84;99.91
59588;BME280;45412;54.472;18.464;2023-04-25T00:29:02;98470.35;;;10.82;99.92
59588;BME280;45412;54.472;18.464;2023-04-25T00:31:49;98472.11;;;10.82;100.00
59588;BME280;45412;54.472;18.464;2023-04-25T00:34:36;98476.01;;;10.82;100.00
59588;BME280;45412;54.472;18.464;2023-04-25T00:37:23;98475.09;;;10.83;99.95
59588;BME280;45412;54.472;18.464;2023-04-25T00:40:10;98477.64;;;10.80;99.61
59588;BME280;45412;54.472;18.464;2023-04-25T00:42:57;98475.33;;;10.78;99.07
59588;BME280;45412;54.472;18.464;2023-04-25T00:45:46;98474.52;;;10.76;98.67
59588;BME280;45412;54.472;18.464;2023-04-25T00:48:33;98473.55;;;10.73;98.44
59588;BME280;45412;54.472;18.464;2023-04-25T00:51:21;98473.20;;;10.71;98.57
59588;BME280;45412;54.472;18.464;2023-04-25T00:54:11;98472.20;;;10.71;98.84
59588;BME280;45412;54.472;18.464;2023-04-25T00:56:58;98472.08;;;10.67;98.52
59588;BME280;45412;54.472;18.464;2023-04-25T00:59:47;98473.79;;;10.64;98.65
59588;BME280;45412;54.472;18.464;2023-04-25T01:02:35;98473.23;;;10.61;98.60
59588;BME280;45412;54.472;18.464;2023-04-25T01:05:22;98468.92;;;10.60;98.95
59588;BME280;45412;54.472;18.464;2023-04-25T01:08:10;98476.23;;;10.59;99.45
59588;BME280;45412;54.472;18.464;2023-04-25T01:10:56;98480.68;;;10.57;99.31
59588;BME280;45412;54.472;18.464;2023-04-25T01:13:43;98479.55;;;10.56;99.70
59588;BME280;45412;54.472;18.464;2023-04-25T01:16:32;98480.02;;;10.55;99.91
59588;BME280;45412;54.472;18.464;2023-04-25T01:19:19;98476.36;;;10.49;100.00
59588;BME280;45412;54.472;18.464;2023-04-25T01:22:06;98476.09;;;10.43;100.00
59588;BME280;45412;54.472;18.464;2023-04-25T01:24:53;98476.73;;;10.37;100.00
59588;BME280;45412;54.472;18.464;2023-04-25T01:27:40;98477.63;;;10.31;100.00
59588;BME280;45412;54.472;18.464;2023-04-25T01:30:29;98480.27;;;10.28;100.00
59588;BME280;45412;54.472;18.464;2023-04-25T01:33:16;98481.09;;;10.25;100.00
59588;BME280;45412;54.472;18.464;2023-04-25T01:36:04;98480.11;;;10.24;100.00
59588;BME280;45412;54.472;18.464;2023-04-25T01:38:51;98476.45;;;10.23;100.00
59588;BME280;45412;54.472;18.464;2023-04-25T01:41:38;98480.31;;;10.24;100.00
59588;BME280;45412;54.472;18.464;2023-04-25T01:44:25;98480.89;;;10.23;100.00
59588;BME280;45412;54.472;18.464;2023-04-25T01:47:13;98480.20;;;10.23;100.00
59588;BME280;45412;54.472;18.464;2023-04-25T01:49:59;98475.75;;;10.23;100.00
59588;BME280;45412;54.472;18.464;2023-04-25T01:52:49;98480.75;;;10.25;100.00
59588;BME280;45412;54.472;18.464;2023-04-25T01:55:36;98484.85;;;10.26;100.00
59588;BME280;45412;54.472;18.464;2023-04-25T01:58:29;98484.02;;;10.28;100.00
59588;BME280;45412;54.472;18.464;2023-04-25T02:01:32;98487.23;;;10.29;100.00
59588;BME280;45412;54.472;18.464;2023-04-25T02:04:31;98489.66;;;10.31;100.00
59588;BME280;45412;54.472;18.464;2023-04-25T02:07:18;98489.74;;;10.32;100.00
59588;BME280;45412;54.472;18.464;2023-04-25T02:10:13;98493.66;;;10.32;100.00
59588;BME280;45412;54.472;18.464;2023-04-25T02:13:14;98491.52;;;10.30;100.00
59588;BME280;45412;54.472;18.464;2023-04-25T02:16:16;98492.48;;;10.30;100.00
59588;BME280;45412;54.472;18.464;2023-04-25T02:19:04;98491.21;;;10.28;100.00
59588;BME280;45412;54.472;18.464;2023-04-25T02:21:51;98493.58;;;10.26;100.00
59588;BME280;45412;54.472;18.464;2023-04-25T02:24:39;98496.30;;;10.25;100.00
59588;BME280;45412;54.472;18.464;2023-04-25T02:27:26;98499.67;;;10.23;100.00
59588;BME280;45412;54.472;18.464;2023-04-25T02:30:13;98500.02;;;10.22;100.00
59588;BME280;45412;54.472;18.464;2023-04-25T02:33:00;98499.27;;;10.22;100.00
59588;BME280;45412;54.472;18.464;2023-04-25T02:35:48;98501.34;;;10.22;100.00
59588;BME280;45412;54.472;18.464;2023-04-25T02:38:36;98502.16;;;10.23;100.00
59588;BME280;45412;54.472;18.464;2023-04-25T02:41:23;98502.80;;;10.24;100.00
59588;BME280;45412;54.472;18.464;2023-04-25T02:44:10;98500.60;;;10.25;100.00
59588;BME280;45412;54.472;18.464;2023-04-25T02:46:57;98497.73;;;10.25;100.00
59588;BME280;45412;54.472;18.464;2023-04-25T02:49:45;98500.60;;;10.25;100.00
59588;BME280;45412;54.472;18.464;2023-04-25T02:52:31;98498.08;;;10.23;100.00
59588;BME280;45412;54.472;18.464;2023-04-25T02:55:25;98499.14;;;10.23;100.00
59588;BME280;45412;54.472;18.464;2023-04-25T02:58:15;98496.55;;;10.22;100.00
59588;BME280;45412;54.472;18.464;2023-04-25T03:01:09;98498.10;;;10.21;100.00
59588;BME280;45412;54.472;18.464;2023-04-25T03:03:56;98494.28;;;10.20;100.00
59588;BME280;45412;54.472;18.464;2023-04-25T03:06:43;98494.59;;;10.19;100.00
59588;BME280;45412;54.472;18.464;2023-04-25T03:09:31;98493.40;;;10.19;100.00
59588;BME280;45412;54.472;18.464;2023-04-25T03:12:19;98492.95;;;10.20;100.00
59588;BME280;45412;54.472;18.464;2023-04-25T03:15:06;98495.71;;;10.22;100.00
59588;BME280;45412;54.472;18.464;2023-04-25T03:17:53;98494.78;;;10.22;100.00
59588;BME280;45412;54.472;18.464;2023-04-25T03:20:42;98501.23;;;10.15;100.00
59588;BME280;45412;54.472;18.464;2023-04-25T03:23:29;98517.26;;;9.96;98.98
59588;BME280;45412;54.472;18.464;2023-04-25T03:26:17;98522.21;;;9.78;97.91
59588;BME280;45412;54.472;18.464;2023-04-25T03:29:05;98521.99;;;9.63;97.84
59588;BME280;45412;54.472;18.464;2023-04-25T03:31:53;98527.59;;;9.45;96.02
59588;BME280;45412;54.472;18.464;2023-04-25T03:34:40;98528.20;;;9.31;95.75
59588;BME280;45412;54.472;18.464;2023-04-25T03:37:28;98534.19;;;9.15;94.56
59588;BME280;45412;54.472;18.464;2023-04-25T03:40:15;98533.39;;;9.01;94.18
59588;BME280;45412;54.472;18.464;2023-04-25T03:43:31;98537.05;;;8.87;93.53
59588;BME280;45412;54.472;18.464;2023-04-25T03:46:21;98535.29;;;8.74;93.53
59588;BME280;45412;54.472;18.464;2023-04-25T03:49:07;98535.84;;;8.62;93.90
59588;BME280;45412;54.472;18.464;2023-04-25T03:52:10;98533.90;;;8.53;94.33
59588;BME280;45412;54.472;18.464;2023-04-25T03:54:58;98532.44;;;8.45;94.60
59588;BME280;45412;54.472;18.464;2023-04-25T03:57:45;98530.86;;;8.35;94.96
59588;BME280;45412;54.472;18.464;2023-04-25T04:00:32;98532.61;;;8.28;95.30
59588;BME280;45412;54.472;18.464;2023-04-25T04:03:20;98534.59;;;8.24;95.93
59588;BME280;45412;54.472;18.464;2023-04-25T04:06:08;98536.16;;;8.20;96.25
59588;BME280;45412;54.472;18.464;2023-04-25T04:08:59;98537.94;;;8.16;95.83
59588;BME280;45412;54.472;18.464;2023-04-25T04:11:46;98540.99;;;8.11;96.13
59588;BME280;45412;54.472;18.464;2023-04-25T04:14:35;98539.27;;;8.09;96.25
59588;BME280;45412;54.472;18.464;2023-04-25T04:17:21;98541.27;;;8.08;96.25
59588;BME280;45412;54.472;18.464;2023-04-25T04:20:09;98542.91;;;8.06;96.43
59588;BME280;45412;54.472;18.464;2023-04-25T04:22:57;98542.27;;;8.03;96.57
59588;BME280;45412;54.472;18.464;2023-04-25T04:25:45;98549.55;;;8.03;96.21
59588;BME280;45412;54.472;18.464;2023-04-25T04:28:55;98552.17;;;8.04;96.69
59588;BME280;45412;54.472;18.464;2023-04-25T04:32:00;98558.40;;;8.05;96.40
59588;BME280;45412;54.472;18.464;2023-04-25T04:34:47;98558.55;;;8.03;96.24
59588;BME280;45412;54.472;18.464;2023-04-25T04:37:36;98560.16;;;8.03;96.20
59588;BME280;45412;54.472;18.464;2023-04-25T04:40:23;98560.23;;;8.04;95.97
59588;BME280;45412;54.472;18.464;2023-04-25T04:43:24;98562.35;;;8.04;95.79
59588;BME280;45412;54.472;18.464;2023-04-25T04:46:21;98561.88;;;8.05;95.76
59588;BME280;45412;54.472;18.464;2023-04-25T04:49:31;98564.37;;;8.07;95.53
59588;BME280;45412;54.472;18.464;2023-04-25T04:52:46;98556.30;;;8.10;95.15
59588;BME280;45412;54.472;18.464;2023-04-25T04:55:57;98553.61;;;8.13;94.78
59588;BME280;45412;54.472;18.464;2023-04-25T04:59:13;98555.05;;;8.14;94.66
59588;BME280;45412;54.472;18.464;2023-04-25T05:02:06;98554.38;;;8.16;95.15
59588;BME280;45412;54.472;18.464;2023-04-25T05:05:08;98557.97;;;8.19;94.83
59588;BME280;45412;54.472;18.464;2023-04-25T05:08:09;98560.06;;;8.23;95.13
59588;BME280;45412;54.472;18.464;2023-04-25T05:11:25;98560.87;;;8.28;95.03
59588;BME280;45412;54.472;18.464;2023-04-25T05:14:23;98564.85;;;8.31;94.72
59588;BME280;45412;54.472;18.464;2023-04-25T05:17:32;98560.27;;;8.32;94.61
59588;BME280;45412;54.472;18.464;2023-04-25T05:20:36;98566.55;;;8.29;94.25
59588;BME280;45412;54.472;18.464;2023-04-25T05:23:43;98566.39;;;8.27;94.76
59588;BME280;45412;54.472;18.464;2023-04-25T05:26:49;98567.80;;;8.27;95.20
59588;BME280;45412;54.472;18.464;2023-04-25T05:29:54;98566.09;;;8.27;94.25
59588;BME280;45412;54.472;18.464;2023-04-25T05:32:48;98570.46;;;8.31;93.08
59588;BME280;45412;54.472;18.464;2023-04-25T05:35:34;98572.48;;;8.38;92.17
59588;BME280;45412;54.472;18.464;2023-04-25T05:38:21;98571.44;;;8.50;91.97
59588;BME280;45412;54.472;18.464;2023-04-25T05:41:31;98576.36;;;8.60;90.50
59588;BME280;45412;54.472;18.464;2023-04-25T05:44:21;98580.55;;;8.62;89.10
59588;BME280;45412;54.472;18.464;2023-04-25T05:47:28;98582.91;;;8.61;88.36
59588;BME280;45412;54.472;18.464;2023-04-25T05:50:32;98593.16;;;8.63;87.39
59588;BME280;45412;54.472;18.464;2023-04-25T05:53:23;98597.13;;;8.61;86.17
59588;BME280;45412;54.472;18.464;2023-04-25T05:56:18;98601.08;;;8.57;85.55
59588;BME280;45412;54.472;18.464;2023-04-25T05:59:07;98604.01;;;8.53;85.73
59588;BME280;45412;54.472;18.464;2023-04-25T06:01:55;98605.73;;;8.49;85.52
59588;BME280;45412;54.472;18.464;2023-04-25T06:04:42;98610.77;;;8.45;85.69
59588;BME280;45412;54.472;18.464;2023-04-25T06:07:30;98611.72;;;8.42;86.10
59588;BME280;45412;54.472;18.464;2023-04-25T06:10:17;98606.95;;;8.36;86.15
59588;BME280;45412;54.472;18.464;2023-04-25T06:13:05;98604.89;;;8.30;86.18
59588;BME280;45412;54.472;18.464;2023-04-25T06:15:53;98602.45;;;8.25;86.54
59588;BME280;45412;54.472;18.464;2023-04-25T06:18:39;98604.31;;;8.20;86.51
59588;BME280;45412;54.472;18.464;2023-04-25T06:21:26;98601.94;;;8.17;87.30
59588;BME280;45412;54.472;18.464;2023-04-25T06:24:13;98602.94;;;8.14;87.87
59588;BME280;45412;54.472;18.464;2023-04-25T06:27:00;98607.30;;;8.09;88.31
59588;BME280;45412;54.472;18.464;2023-04-25T06:29:48;98612.04;;;8.03;88.50
59588;BME280;45412;54.472;18.464;2023-04-25T06:32:36;98613.20;;;7.98;89.25
59588;BME280;45412;54.472;18.464;2023-04-25T06:35:23;98616.17;;;7.96;89.70
59588;BME280;45412;54.472;18.464;2023-04-25T06:38:09;98615.94;;;7.95;89.97
59588;BME280;45412;54.472;18.464;2023-04-25T06:40:57;98613.05;;;7.94;90.31
59588;BME280;45412;54.472;18.464;2023-04-25T06:43:44;98614.95;;;7.93;90.35
59588;BME280;45412;54.472;18.464;2023-04-25T06:46:47;98613.17;;;7.95;90.42
59588;BME280;45412;54.472;18.464;2023-04-25T06:49:34;98610.66;;;7.93;90.47
59588;BME280;45412;54.472;18.464;2023-04-25T06:52:22;98618.91;;;7.95;90.91
59588;BME280;45412;54.472;18.464;2023-04-25T06:55:09;98615.01;;;7.98;90.34
59588;BME280;45412;54.472;18.464;2023-04-25T06:58:11;98615.02;;;8.00;90.03
59588;BME280;45412;54.472;18.464;2023-04-25T07:01:10;98613.48;;;7.99;89.20
59588;BME280;45412;54.472;18.464;2023-04-25T07:03:57;98614.20;;;8.01;89.44
59588;BME280;45412;54.472;18.464;2023-04-25T07:06:44;98616.44;;;8.04;89.36
59588;BME280;45412;54.472;18.464;2023-04-25T07:09:35;98619.02;;;8.06;89.17
59588;BME280;45412;54.472;18.464;2023-04-25T07:12:22;98619.89;;;8.04;88.20
59588;BME280;45412;54.472;18.464;2023-04-25T07:15:09;98615.05;;;8.04;88.19
59588;BME280;45412;54.472;18.464;2023-04-25T07:17:59;98614.98;;;8.06;88.21
59588;BME280;45412;54.472;18.464;2023-04-25T07:20:46;98613.98;;;8.07;87.45
59588;BME280;45412;54.472;18.464;2023-04-25T07:23:33;98616.27;;;8.08;86.92
59588;BME280;45412;54.472;18.464;2023-04-25T07:26:22;98621.59;;;8.07;86.33
59588;BME280;45412;54.472;18.464;2023-04-25T07:29:29;98620.00;;;8.09;86.72
59588;BME280;45412;54.472;18.464;2023-04-25T07:32:18;98622.89;;;8.10;86.71
59588;BME280;45412;54.472;18.464;2023-04-25T07:35:06;98627.63;;;8.12;86.38
59588;BME280;45412;54.472;18.464;2023-04-25T07:37:54;98628.83;;;8.21;86.55
59588;BME280;45412;54.472;18.464;2023-04-25T07:40:41;98624.73;;;8.39;85.48
59588;BME280;45412;54.472;18.464;2023-04-25T07:43:33;98624.59;;;8.68;85.47
59588;BME280;45412;54.472;18.464;2023-04-25T07:46:19;98625.58;;;9.07;83.17
59588;BME280;45412;54.472;18.464;2023-04-25T07:49:07;98625.19;;;9.46;81.01
59588;BME280;45412;54.472;18.464;2023-04-25T07:51:54;98629.05;;;9.89;80.04
59588;BME280;45412;54.472;18.464;2023-04-25T07:54:42;98634.36;;;10.25;76.58
59588;BME280;45412;54.472;18.464;2023-04-25T07:57:34;98634.14;;;10.49;75.30
59588;BME280;45412;54.472;18.464;2023-04-25T08:00:22;98635.50;;;10.71;74.92
59588;BME280;45412;54.472;18.464;2023-04-25T08:03:10;98644.20;;;10.93;74.02
59588;BME280;45412;54.472;18.464;2023-04-25T08:05:57;98646.36;;;11.08;71.68
59588;BME280;45412;54.472;18.464;2023-04-25T08:08:45;98644.77;;;11.17;71.19
59588;BME280;45412;54.472;18.464;2023-04-25T08:11:33;98647.23;;;11.24;69.90
59588;BME280;45412;54.472;18.464;2023-04-25T08:14:19;98653.20;;;11.28;70.33
59588;BME280;45412;54.472;18.464;2023-04-25T08:17:07;98657.84;;;11.26;69.49
59588;BME280;45412;54.472;18.464;2023-04-25T08:19:59;98656.77;;;11.16;69.02
59588;BME280;45412;54.472;18.464;2023-04-25T08:22:48;98660.70;;;11.08;69.85
59588;BME280;45412;54.472;18.464;2023-04-25T08:25:55;98663.45;;;11.02;70.52
59588;BME280;45412;54.472;18.464;2023-04-25T08:28:44;98666.25;;;11.01;70.75
59588;BME280;45412;54.472;18.464;2023-04-25T08:31:31;98672.58;;;10.91;70.54
59588;BME280;45412;54.472;18.464;2023-04-25T08:34:20;98677.91;;;10.77;71.02
59588;BME280;45412;54.472;18.464;2023-04-25T08:37:08;98681.16;;;10.67;71.68
59588;BME280;45412;54.472;18.464;2023-04-25T08:40:05;98683.17;;;10.61;71.42
59588;BME280;45412;54.472;18.464;2023-04-25T08:43:04;98687.13;;;10.59;71.11
59588;BME280;45412;54.472;18.464;2023-04-25T08:46:01;98685.77;;;10.58;70.91
59588;BME280;45412;54.472;18.464;2023-04-25T08:49:01;98698.65;;;10.62;70.96
59588;BME280;45412;54.472;18.464;2023-04-25T08:51:49;98700.38;;;10.61;70.38
59588;BME280;45412;54.472;18.464;2023-04-25T08:54:43;98703.35;;;10.60;70.82
59588;BME280;45412;54.472;18.464;2023-04-25T08:57:35;98703.55;;;10.63;70.58
59588;BME280;45412;54.472;18.464;2023-04-25T09:00:22;98713.77;;;10.67;69.98
59588;BME280;45412;54.472;18.464;2023-04-25T09:03:10;98714.20;;;10.68;69.36
59588;BME280;45412;54.472;18.464;2023-04-25T09:05:57;98719.16;;;10.68;68.18
59588;BME280;45412;54.472;18.464;2023-04-25T09:08:44;98721.45;;;10.63;68.43
59588;BME280;45412;54.472;18.464;2023-04-25T09:11:32;98722.06;;;10.51;68.71
59588;BME280;45412;54.472;18.464;2023-04-25T09:14:22;98726.51;;;10.43;69.37
59588;BME280;45412;54.472;18.464;2023-04-25T09:17:19;98731.70;;;10.40;70.27
59588;BME280;45412;54.472;18.464;2023-04-25T09:20:13;98734.83;;;10.41;69.76
59588;BME280;45412;54.472;18.464;2023-04-25T09:23:05;98736.19;;;10.54;69.95
59588;BME280;45412;54.472;18.464;2023-04-25T09:25:54;98738.02;;;10.68;69.18
59588;BME280;45412;54.472;18.464;2023-04-25T09:28:41;98731.00;;;10.87;69.73
59588;BME280;45412;54.472;18.464;2023-04-25T09:31:29;98730.39;;;11.12;68.73
59588;BME280;45412;54.472;18.464;2023-04-25T09:34:20;98733.15;;;11.41;68.55
59588;BME280;45412;54.472;18.464;2023-04-25T09:37:20;98735.33;;;11.74;68.03
59588;BME280;45412;54.472;18.464;2023-04-25T09:40:26;98736.86;;;11.91;65.44
59588;BME280;45412;54.472;18.464;2023-04-25T09:43:24;98739.67;;;12.02;65.92
59588;BME280;45412;54.472;18.464;2023-04-25T09:46:11;98743.09;;;12.00;64.38
59588;BME280;45412;54.472;18.464;2023-04-25T09:49:07;98745.96;;;11.79;64.19
59588;BME280;45412;54.472;18.464;2023-04-25T09:52:03;98750.13;;;11.58;64.60
59588;BME280;45412;54.472;18.464;2023-04-25T09:54:56;98754.62;;;11.47;65.13
59588;BME280;45412;54.472;18.464;2023-04-25T09:57:52;98752.98;;;11.31;64.39
59588;BME280;45412;54.472;18.464;2023-04-25T10:00:40;98754.84;;;11.20;64.38
59588;BME280;45412;54.472;18.464;2023-04-25T10:03:35;98758.51;;;11.15;64.78
59588;BME280;45412;54.472;18.464;2023-04-25T10:06:53;98755.77;;;11.19;65.46
59588;BME280;45412;54.472;18.464;2023-04-25T10:09:42;98764.43;;;11.39;65.76
59588;BME280;45412;54.472;18.464;2023-04-25T10:12:33;98766.42;;;11.55;65.49
59588;BME280;45412;54.472;18.464;2023-04-25T10:15:21;98773.98;;;11.48;64.92
59588;BME280;45412;54.472;18.464;2023-04-25T10:18:08;98773.48;;;11.29;65.53
59588;BME280;45412;54.472;18.464;2023-04-25T10:21:00;98780.36;;;11.13;66.27
59588;BME280;45412;54.472;18.464;2023-04-25T10:23:49;98788.14;;;11.01;67.27
59588;BME280;45412;54.472;18.464;2023-04-25T10:26:35;98782.91;;;10.86;67.47
59588;BME280;45412;54.472;18.464;2023-04-25T10:29:24;98783.83;;;10.73;68.13
59588;BME280;45412;54.472;18.464;2023-04-25T10:32:11;98786.38;;;10.65;68.50
59588;BME280;45412;54.472;18.464;2023-04-25T10:35:23;98786.20;;;10.54;68.60
59588;BME280;45412;54.472;18.464;2023-04-25T10:38:13;98786.06;;;10.50;68.17
59588;BME280;45412;54.472;18.464;2023-04-25T10:41:05;98786.17;;;10.51;68.40
59588;BME280;45412;54.472;18.464;2023-04-25T10:44:00;98790.31;;;10.53;68.25
59588;BME280;45412;54.472;18.464;2023-04-25T10:46:49;98791.33;;;10.62;67.88
59588;BME280;45412;54.472;18.464;2023-04-25T10:49:42;98793.05;;;10.73;67.39
59588;BME280;45412;54.472;18.464;2023-04-25T10:52:28;98794.00;;;10.86;67.49
59588;BME280;45412;54.472;18.464;2023-04-25T10:55:16;98793.67;;;11.02;67.32
59588;BME280;45412;54.472;18.464;2023-04-25T10:58:02;98788.96;;;11.18;66.35
59588;BME280;45412;54.472;18.464;2023-04-25T11:00:50;98791.17;;;11.31;66.11
59588;BME280;45412;54.472;18.464;2023-04-25T11:03:43;98789.66;;;11.32;64.96
59588;BME280;45412;54.472;18.464;2023-04-25T11:09:49;98794.26;;;11.47;64.48
59588;BME280;45412;54.472;18.464;2023-04-25T11:12:36;98793.40;;;11.50;64.12
59588;BME280;45412;54.472;18.464;2023-04-25T11:15:23;98793.67;;;11.54;63.27
59588;BME280;45412;54.472;18.464;2023-04-25T11:18:16;98795.70;;;11.60;63.29
59588;BME280;45412;54.472;18.464;2023-04-25T11:21:03;98798.33;;;11.62;62.89
59588;BME280;45412;54.472;18.464;2023-04-25T11:23:49;98799.67;;;11.56;62.68
59588;BME280;45412;54.472;18.464;2023-04-25T11:26:36;98801.48;;;11.47;62.54
59588;BME280;45412;54.472;18.464;2023-04-25T11:29:27;98804.75;;;11.34;61.93
59588;BME280;45412;54.472;18.464;2023-04-25T11:32:17;98812.64;;;11.26;62.47
59588;BME280;45412;54.472;18.464;2023-04-25T11:35:07;98816.54;;;11.19;62.41
59588;BME280;45412;54.472;18.464;2023-04-25T11:37:56;98812.15;;;11.02;62.22
59588;BME280;45412;54.472;18.464;2023-04-25T11:40:42;98817.33;;;10.99;63.05
59588;BME280;45412;54.472;18.464;2023-04-25T11:43:28;98821.95;;;10.91;63.57
59588;BME280;45412;54.472;18.464;2023-04-25T11:46:15;98822.62;;;10.81;64.55
59588;BME280;45412;54.472;18.464;2023-04-25T11:49:02;98825.63;;;10.70;65.19
59588;BME280;45412;54.472;18.464;2023-04-25T11:51:51;98825.54;;;10.60;65.74
59588;BME280;45412;54.472;18.464;2023-04-25T11:54:38;98829.60;;;10.49;66.45
59588;BME280;45412;54.472;18.464;2023-04-25T11:57:25;98833.85;;;10.40;66.75
59588;BME280;45412;54.472;18.464;2023-04-25T12:00:15;98833.30;;;10.29;67.30
59588;BME280;45412;54.472;18.464;2023-04-25T12:03:09;98836.74;;;10.13;67.28
59588;BME280;45412;54.472;18.464;2023-04-25T12:06:02;98835.92;;;10.03;67.55
59588;BME280;45412;54.472;18.464;2023-04-25T12:11:48;98839.14;;;9.85;68.18
59588;BME280;45412;54.472;18.464;2023-04-25T12:14:35;98837.39;;;9.83;68.44
59588;BME280;45412;54.472;18.464;2023-04-25T12:17:23;98837.75;;;9.85;68.76
59588;BME280;45412;54.472;18.464;2023-04-25T12:20:12;98835.47;;;9.87;69.00
59588;BME280;45412;54.472;18.464;2023-04-25T12:22:59;98840.95;;;9.87;68.90
59588;BME280;45412;54.472;18.464;2023-04-25T12:25:46;98843.27;;;9.91;69.07
59588;BME280;45412;54.472;18.464;2023-04-25T12:28:33;98841.14;;;10.00;69.05
59588;BME280;45412;54.472;18.464;2023-04-25T12:31:20;98852.23;;;10.10;68.67
59588;BME280;45412;54.472;18.464;2023-04-25T12:34:07;98846.23;;;10.15;68.29
59588;BME280;45412;54.472;18.464;2023-04-25T12:36:54;98844.84;;;10.25;68.20
59588;BME280;45412;54.472;18.464;2023-04-25T12:39:41;98849.58;;;10.35;68.11
59588;BME280;45412;54.472;18.464;2023-04-25T12:42:27;98850.33;;;10.44;67.77
59588;BME280;45412;54.472;18.464;2023-04-25T12:45:15;98845.48;;;10.55;68.09
59588;BME280;45412;54.472;18.464;2023-04-25T12:48:02;98844.52;;;10.63;67.47
59588;BME280;45412;54.472;18.464;2023-04-25T12:50:51;98850.00;;;10.69;67.40
59588;BME280;45412;54.472;18.464;2023-04-25T12:53:38;98847.23;;;10.76;66.97
59588;BME280;45412;54.472;18.464;2023-04-25T12:56:27;98848.35;;;10.79;66.73
59588;BME280;45412;54.472;18.464;2023-04-25T12:59:14;98848.80;;;10.78;66.14
59588;BME280;45412;54.472;18.464;2023-04-25T13:02:01;98846.99;;;10.73;66.69
59588;BME280;45412;54.472;18.464;2023-04-25T13:04:48;98840.59;;;10.75;66.58
59588;BME280;45412;54.472;18.464;2023-04-25T13:07:34;98834.79;;;10.78;65.38
59588;BME280;45412;54.472;18.464;2023-04-25T13:10:22;98832.18;;;10.88;64.86
59588;BME280;45412;54.472;18.464;2023-04-25T13:13:09;98832.42;;;11.00;65.08
59588;BME280;45412;54.472;18.464;2023-04-25T13:15:57;98833.54;;;11.14;64.83
59588;BME280;45412;54.472;18.464;2023-04-25T13:18:44;98832.91;;;11.29;64.30
59588;BME280;45412;54.472;18.464;2023-04-25T13:21:31;98836.55;;;11.43;62.98
59588;BME280;45412;54.472;18.464;2023-04-25T13:24:18;98832.69;;;11.58;62.20
59588;BME280;45412;54.472;18.464;2023-04-25T13:27:04;98830.82;;;11.71;60.98
59588;BME280;45412;54.472;18.464;2023-04-25T13:29:52;98830.41;;;11.82;59.79
59588;BME280;45412;54.472;18.464;2023-04-25T13:32:39;98831.98;;;11.95;59.74
59588;BME280;45412;54.472;18.464;2023-04-25T13:35:26;98830.60;;;12.12;59.45
59588;BME280;45412;54.472;18.464;2023-04-25T13:38:13;98831.11;;;12.34;58.90
59588;BME280;45412;54.472;18.464;2023-04-25T13:41:00;98830.60;;;12.55;58.91
59588;BME280;45412;54.472;18.464;2023-04-25T13:43:47;98832.42;;;12.68;58.13
59588;BME280;45412;54.472;18.464;2023-04-25T13:46:33;98832.59;;;12.68;56.05
59588;BME280;45412;54.472;18.464;2023-04-25T13:49:33;98837.80;;;12.61;56.89
59588;BME280;45412;54.472;18.464;2023-04-25T13:52:21;98832.02;;;12.46;55.80
59588;BME280;45412;54.472;18.464;2023-04-25T13:55:08;98834.05;;;12.32;56.43
59588;BME280;45412;54.472;18.464;2023-04-25T13:57:55;98834.54;;;12.10;56.53
59588;BME280;45412;54.472;18.464;2023-04-25T14:00:42;98845.76;;;11.85;57.03
59588;BME280;45412;54.472;18.464;2023-04-25T14:03:31;98852.51;;;11.48;57.01
59588;BME280;45412;54.472;18.464;2023-04-25T14:06:18;98856.80;;;11.10;58.27
59588;BME280;45412;54.472;18.464;2023-04-25T14:09:09;98859.80;;;10.74;59.14
59588;BME280;45412;54.472;18.464;2023-04-25T14:11:56;98866.15;;;10.41;60.52
59588;BME280;45412;54.472;18.464;2023-04-25T14:14:43;98869.92;;;10.14;61.10
59588;BME280;45412;54.472;18.464;2023-04-25T14:17:31;98875.50;;;9.85;61.79
59588;BME280;45412;54.472;18.464;2023-04-25T14:20:19;98880.95;;;9.57;62.58
59588;BME280;45412;54.472;18.464;2023-04-25T14:23:07;98885.50;;;9.32;63.11
59588;BME280;45412;54.472;18.464;2023-04-25T14:25:54;98886.20;;;9.15;64.12
59588;BME280;45412;54.472;18.464;2023-04-25T14:28:41;98886.07;;;9.02;64.91
59588;BME280;45412;54.472;18.464;2023-04-25T14:31:28;98887.28;;;8.92;65.35
59588;BME280;45412;54.472;18.464;2023-04-25T14:34:15;98887.88;;;8.84;66.15
59588;BME280;45412;54.472;18.464;2023-04-25T14:37:04;98889.38;;;8.75;67.04
59588;BME280;45412;54.472;18.464;2023-04-25T14:39:51;98887.63;;;8.64;67.34
59588;BME280;45412;54.472;18.464;2023-04-25T14:42:39;98888.11;;;8.59;67.83
59588;BME280;45412;54.472;18.464;2023-04-25T14:45:28;98892.97;;;8.56;67.78
59588;BME280;45412;54.472;18.464;2023-04-25T14:48:15;98895.23;;;8.57;67.50
59588;BME280;45412;54.472;18.464;2023-04-25T14:51:06;98898.48;;;8.60;67.31
59588;BME280;45412;54.472;18.464;2023-04-25T14:53:55;98902.29;;;8.59;65.05
59588;BME280;45412;54.472;18.464;2023-04-25T14:56:42;98898.65;;;8.54;64.03
59588;BME280;45412;54.472;18.464;2023-04-25T14:59:30;98899.27;;;8.49;63.39